sensor_id;sensor_type;location;lat;lon;timestamp;P1;durP1;ratioP1;P2;durP2;ratioP2
18172;SDS011;9211;48.818;9.312;2022-07-06T00:00:04;2.53;;;1.73;;
18172;SDS011;9211;48.818;9.312;2022-07-06T00:02:32;3.72;;;1.70;;
18172;SDS011;9211;48.818;9.312;2022-07-06T00:04:59;5.97;;;1.98;;
18172;SDS011;9211;48.818;9.312;2022-07-06T00:07:26;6.82;;;1.90;;
18172;SDS011;9211;48.818;9.312;2022-07-06T00:09:53;3.85;;;1.70;;
18172;SDS011;9211;48.818;9.312;2022-07-06T00:12:20;4.40;;;2.10;;
18172;SDS011;9211;48.818;9.312;2022-07-06T00:14:48;3.40;;;1.80;;
18172;SDS011;9211;48.818;9.312;2022-07-06T00:17:15;3.20;;;1.90;;
18172;SDS011;9211;48.818;9.312;2022-07-06T00:19:42;3.17;;;1.80;;
18172;SDS011;9211;48.818;9.312;2022-07-06T00:22:09;5.13;;;1.90;;
18172;SDS011;9211;48.818;9.312;2022-07-06T00:24:36;3.83;;;1.88;;
18172;SDS011;9211;48.818;9.312;2022-07-06T00:27:03;3.50;;;1.80;;
18172;SDS011;9211;48.818;9.312;2022-07-06T00:29:30;4.80;;;2.28;;
18172;SDS011;9211;48.818;9.312;2022-07-06T00:31:59;3.55;;;1.83;;
18172;SDS011;9211;48.818;9.312;2022-07-06T00:34:26;4.05;;;1.75;;
18172;SDS011;9211;48.818;9.312;2022-07-06T00:36:53;4.03;;;1.80;;
18172;SDS011;9211;48.818;9.312;2022-07-06T00:39:20;6.30;;;1.98;;
18172;SDS011;9211;48.818;9.312;2022-07-06T00:41:54;2.88;;;1.75;;
18172;SDS011;9211;48.818;9.312;2022-07-06T00:44:21;4.38;;;2.08;;
18172;SDS011;9211;48.818;9.312;2022-07-06T00:46:48;2.80;;;1.80;;
18172;SDS011;9211;48.818;9.312;2022-07-06T00:49:17;2.63;;;1.75;;
18172;SDS011;9211;48.818;9.312;2022-07-06T00:51:58;4.22;;;2.00;;
18172;SDS011;9211;48.818;9.312;2022-07-06T00:54:26;3.10;;;2.00;;
18172;SDS011;9211;48.818;9.312;2022-07-06T00:56:54;4.63;;;2.00;;
18172;SDS011;9211;48.818;9.312;2022-07-06T00:59:21;4.57;;;2.15;;
18172;SDS011;9211;48.818;9.312;2022-07-06T01:01:49;2.95;;;1.95;;
18172;SDS011;9211;48.818;9.312;2022-07-06T01:04:18;3.70;;;1.88;;
18172;SDS011;9211;48.818;9.312;2022-07-06T01:06:45;3.53;;;1.95;;
18172;SDS011;9211;48.818;9.312;2022-07-06T01:09:12;5.45;;;1.90;;
18172;SDS011;9211;48.818;9.312;2022-07-06T01:11:39;3.75;;;2.28;;
18172;SDS011;9211;48.818;9.312;2022-07-06T01:14:07;4.38;;;1.88;;
18172;SDS011;9211;48.818;9.312;2022-07-06T01:16:34;5.15;;;2.00;;
18172;SDS011;9211;48.818;9.312;2022-07-06T01:19:02;4.32;;;2.20;;
18172;SDS011;9211;48.818;9.312;2022-07-06T01:21:30;3.90;;;2.03;;
18172;SDS011;9211;48.818;9.312;2022-07-06T01:23:57;4.90;;;1.85;;
18172;SDS011;9211;48.818;9.312;2022-07-06T01:26:24;3.47;;;2.22;;
18172;SDS011;9211;48.818;9.312;2022-07-06T01:28:52;4.20;;;2.10;;
18172;SDS011;9211;48.818;9.312;2022-07-06T01:31:20;3.28;;;2.05;;
18172;SDS011;9211;48.818;9.312;2022-07-06T01:33:50;4.80;;;2.00;;
18172;SDS011;9211;48.818;9.312;2022-07-06T01:36:18;3.60;;;1.80;;
18172;SDS011;9211;48.818;9.312;2022-07-06T01:38:48;4.13;;;2.47;;
18172;SDS011;9211;48.818;9.312;2022-07-06T01:41:15;4.57;;;2.00;;
18172;SDS011;9211;48.818;9.312;2022-07-06T01:43:43;3.65;;;1.80;;
18172;SDS011;9211;48.818;9.312;2022-07-06T01:46:10;3.95;;;2.17;;
18172;SDS011;9211;48.818;9.312;2022-07-06T01:48:38;3.33;;;2.08;;
18172;SDS011;9211;48.818;9.312;2022-07-06T01:51:05;3.53;;;2.22;;
18172;SDS011;9211;48.818;9.312;2022-07-06T01:53:33;5.68;;;2.28;;
18172;SDS011;9211;48.818;9.312;2022-07-06T01:56:03;2.88;;;2.10;;
18172;SDS011;9211;48.818;9.312;2022-07-06T01:58:31;4.03;;;1.90;;
18172;SDS011;9211;48.818;9.312;2022-07-06T02:03:33;7.78;;;2.17;;
18172;SDS011;9211;48.818;9.312;2022-07-06T02:06:01;3.87;;;2.00;;
18172;SDS011;9211;48.818;9.312;2022-07-06T02:08:28;3.63;;;2.20;;
18172;SDS011;9211;48.818;9.312;2022-07-06T02:10:55;3.28;;;2.10;;
18172;SDS011;9211;48.818;9.312;2022-07-06T02:13:24;4.10;;;1.92;;
18172;SDS011;9211;48.818;9.312;2022-07-06T02:15:51;4.00;;;2.10;;
18172;SDS011;9211;48.818;9.312;2022-07-06T02:18:18;5.78;;;2.25;;
18172;SDS011;9211;48.818;9.312;2022-07-06T02:20:45;3.58;;;1.80;;
18172;SDS011;9211;48.818;9.312;2022-07-06T02:23:12;4.90;;;2.40;;
18172;SDS011;9211;48.818;9.312;2022-07-06T02:25:40;3.65;;;2.00;;
18172;SDS011;9211;48.818;9.312;2022-07-06T02:28:07;5.90;;;2.17;;
18172;SDS011;9211;48.818;9.312;2022-07-06T02:30:35;3.28;;;1.90;;
18172;SDS011;9211;48.818;9.312;2022-07-06T02:33:03;3.70;;;2.03;;
18172;SDS011;9211;48.818;9.312;2022-07-06T02:35:31;5.00;;;2.20;;
18172;SDS011;9211;48.818;9.312;2022-07-06T02:37:59;4.38;;;2.30;;
18172;SDS011;9211;48.818;9.312;2022-07-06T02:40:26;3.20;;;2.00;;
18172;SDS011;9211;48.818;9.312;2022-07-06T02:42:53;4.63;;;2.15;;
18172;SDS011;9211;48.818;9.312;2022-07-06T02:45:21;3.75;;;2.00;;
18172;SDS011;9211;48.818;9.312;2022-07-06T02:47:49;4.55;;;2.05;;
18172;SDS011;9211;48.818;9.312;2022-07-06T02:50:18;3.78;;;2.00;;
18172;SDS011;9211;48.818;9.312;2022-07-06T02:52:46;6.03;;;2.20;;
18172;SDS011;9211;48.818;9.312;2022-07-06T02:55:13;4.47;;;1.90;;
18172;SDS011;9211;48.818;9.312;2022-07-06T02:57:40;3.45;;;2.00;;
18172;SDS011;9211;48.818;9.312;2022-07-06T03:00:10;5.22;;;2.05;;
18172;SDS011;9211;48.818;9.312;2022-07-06T03:02:39;5.53;;;1.90;;
18172;SDS011;9211;48.818;9.312;2022-07-06T03:05:09;4.35;;;2.20;;
18172;SDS011;9211;48.818;9.312;2022-07-06T03:07:36;4.22;;;2.00;;
18172;SDS011;9211;48.818;9.312;2022-07-06T03:10:05;2.90;;;2.00;;
18172;SDS011;9211;48.818;9.312;2022-07-06T03:12:32;4.30;;;2.10;;
18172;SDS011;9211;48.818;9.312;2022-07-06T03:15:00;3.00;;;2.00;;
18172;SDS011;9211;48.818;9.312;2022-07-06T03:17:29;3.50;;;2.10;;
18172;SDS011;9211;48.818;9.312;2022-07-06T03:19:56;4.27;;;2.10;;
18172;SDS011;9211;48.818;9.312;2022-07-06T03:22:26;3.50;;;2.03;;
18172;SDS011;9211;48.818;9.312;2022-07-06T03:24:53;4.00;;;2.20;;
18172;SDS011;9211;48.818;9.312;2022-07-06T03:27:20;4.75;;;1.98;;
18172;SDS011;9211;48.818;9.312;2022-07-06T03:29:47;4.60;;;2.25;;
18172;SDS011;9211;48.818;9.312;2022-07-06T03:32:15;4.93;;;2.20;;
18172;SDS011;9211;48.818;9.312;2022-07-06T03:34:42;2.58;;;2.00;;
18172;SDS011;9211;48.818;9.312;2022-07-06T03:37:10;5.22;;;2.03;;
18172;SDS011;9211;48.818;9.312;2022-07-06T03:39:40;5.05;;;2.28;;
18172;SDS011;9211;48.818;9.312;2022-07-06T03:42:08;4.28;;;2.15;;
18172;SDS011;9211;48.818;9.312;2022-07-06T03:44:36;4.07;;;2.15;;
18172;SDS011;9211;48.818;9.312;2022-07-06T03:47:03;5.60;;;2.35;;
18172;SDS011;9211;48.818;9.312;2022-07-06T03:49:30;5.55;;;2.30;;
18172;SDS011;9211;48.818;9.312;2022-07-06T03:51:59;5.15;;;2.33;;
18172;SDS011;9211;48.818;9.312;2022-07-06T03:54:30;3.40;;;2.05;;
18172;SDS011;9211;48.818;9.312;2022-07-06T03:57:00;4.15;;;2.22;;
18172;SDS011;9211;48.818;9.312;2022-07-06T03:59:27;4.35;;;2.30;;
18172;SDS011;9211;48.818;9.312;2022-07-06T04:01:54;6.03;;;2.20;;
18172;SDS011;9211;48.818;9.312;2022-07-06T04:04:22;5.82;;;2.38;;
18172;SDS011;9211;48.818;9.312;2022-07-06T04:06:48;4.82;;;2.30;;
18172;SDS011;9211;48.818;9.312;2022-07-06T04:09:17;4.40;;;2.30;;
18172;SDS011;9211;48.818;9.312;2022-07-06T04:11:45;4.95;;;2.28;;
18172;SDS011;9211;48.818;9.312;2022-07-06T04:14:13;6.20;;;2.35;;
18172;SDS011;9211;48.818;9.312;2022-07-06T04:16:41;4.07;;;2.42;;
18172;SDS011;9211;48.818;9.312;2022-07-06T04:19:08;7.70;;;2.70;;
18172;SDS011;9211;48.818;9.312;2022-07-06T04:21:35;6.22;;;2.30;;
18172;SDS011;9211;48.818;9.312;2022-07-06T04:24:02;5.38;;;2.20;;
18172;SDS011;9211;48.818;9.312;2022-07-06T04:26:32;4.25;;;2.30;;
18172;SDS011;9211;48.818;9.312;2022-07-06T04:28:59;7.00;;;2.60;;
18172;SDS011;9211;48.818;9.312;2022-07-06T04:31:29;7.25;;;2.60;;
18172;SDS011;9211;48.818;9.312;2022-07-06T04:33:56;5.50;;;2.40;;
18172;SDS011;9211;48.818;9.312;2022-07-06T04:36:25;5.90;;;2.60;;
18172;SDS011;9211;48.818;9.312;2022-07-06T04:38:53;6.30;;;2.83;;
18172;SDS011;9211;48.818;9.312;2022-07-06T04:41:20;5.70;;;2.72;;
18172;SDS011;9211;48.818;9.312;2022-07-06T04:43:49;4.45;;;2.90;;
18172;SDS011;9211;48.818;9.312;2022-07-06T04:46:17;4.88;;;2.60;;
18172;SDS011;9211;48.818;9.312;2022-07-06T04:48:48;6.13;;;2.60;;
18172;SDS011;9211;48.818;9.312;2022-07-06T04:51:21;7.77;;;2.80;;
18172;SDS011;9211;48.818;9.312;2022-07-06T04:53:48;7.07;;;2.85;;
18172;SDS011;9211;48.818;9.312;2022-07-06T04:56:15;4.45;;;2.70;;
18172;SDS011;9211;48.818;9.312;2022-07-06T04:58:43;5.70;;;2.67;;
18172;SDS011;9211;48.818;9.312;2022-07-06T05:01:13;4.80;;;2.65;;
18172;SDS011;9211;48.818;9.312;2022-07-06T05:03:42;5.22;;;2.95;;
18172;SDS011;9211;48.818;9.312;2022-07-06T05:06:13;4.65;;;2.97;;
18172;SDS011;9211;48.818;9.312;2022-07-06T05:08:42;5.07;;;2.90;;
18172;SDS011;9211;48.818;9.312;2022-07-06T05:11:10;5.65;;;2.88;;
18172;SDS011;9211;48.818;9.312;2022-07-06T05:13:37;5.75;;;2.80;;
18172;SDS011;9211;48.818;9.312;2022-07-06T05:16:04;6.45;;;3.05;;
18172;SDS011;9211;48.818;9.312;2022-07-06T05:18:32;4.28;;;2.70;;
18172;SDS011;9211;48.818;9.312;2022-07-06T05:20:59;6.00;;;3.15;;
18172;SDS011;9211;48.818;9.312;2022-07-06T05:23:28;4.93;;;2.83;;
18172;SDS011;9211;48.818;9.312;2022-07-06T05:25:56;9.10;;;3.40;;
18172;SDS011;9211;48.818;9.312;2022-07-06T05:28:24;5.50;;;2.93;;
18172;SDS011;9211;48.818;9.312;2022-07-06T05:30:51;6.53;;;3.10;;
18172;SDS011;9211;48.818;9.312;2022-07-06T05:33:18;7.88;;;3.08;;
18172;SDS011;9211;48.818;9.312;2022-07-06T05:35:46;5.22;;;2.88;;
18172;SDS011;9211;48.818;9.312;2022-07-06T05:38:13;6.63;;;2.95;;
18172;SDS011;9211;48.818;9.312;2022-07-06T05:40:42;5.68;;;3.03;;
18172;SDS011;9211;48.818;9.312;2022-07-06T05:43:09;7.53;;;3.27;;
18172;SDS011;9211;48.818;9.312;2022-07-06T05:45:37;8.05;;;3.00;;
18172;SDS011;9211;48.818;9.312;2022-07-06T05:48:04;4.13;;;3.00;;
18172;SDS011;9211;48.818;9.312;2022-07-06T05:50:49;7.88;;;3.17;;
18172;SDS011;9211;48.818;9.312;2022-07-06T05:53:16;6.65;;;3.03;;
18172;SDS011;9211;48.818;9.312;2022-07-06T05:55:46;6.28;;;3.03;;
18172;SDS011;9211;48.818;9.312;2022-07-06T05:58:14;6.70;;;3.10;;
18172;SDS011;9211;48.818;9.312;2022-07-06T06:00:43;6.85;;;3.15;;
18172;SDS011;9211;48.818;9.312;2022-07-06T06:03:14;4.43;;;2.67;;
18172;SDS011;9211;48.818;9.312;2022-07-06T06:05:42;3.85;;;2.70;;
18172;SDS011;9211;48.818;9.312;2022-07-06T06:08:12;6.50;;;3.15;;
18172;SDS011;9211;48.818;9.312;2022-07-06T06:10:39;7.28;;;3.00;;
18172;SDS011;9211;48.818;9.312;2022-07-06T06:13:10;4.78;;;2.67;;
18172;SDS011;9211;48.818;9.312;2022-07-06T06:15:38;6.47;;;2.80;;
18172;SDS011;9211;48.818;9.312;2022-07-06T06:18:05;5.90;;;2.40;;
18172;SDS011;9211;48.818;9.312;2022-07-06T06:20:32;5.57;;;2.70;;
18172;SDS011;9211;48.818;9.312;2022-07-06T06:22:59;6.87;;;2.90;;
18172;SDS011;9211;48.818;9.312;2022-07-06T06:25:29;3.90;;;2.40;;
18172;SDS011;9211;48.818;9.312;2022-07-06T06:27:57;3.70;;;2.10;;
18172;SDS011;9211;48.818;9.312;2022-07-06T06:30:26;6.20;;;2.40;;
18172;SDS011;9211;48.818;9.312;2022-07-06T06:33:04;3.93;;;2.40;;
18172;SDS011;9211;48.818;9.312;2022-07-06T06:35:32;5.50;;;2.30;;
18172;SDS011;9211;48.818;9.312;2022-07-06T06:37:59;4.93;;;2.20;;
18172;SDS011;9211;48.818;9.312;2022-07-06T06:40:26;3.83;;;2.20;;
18172;SDS011;9211;48.818;9.312;2022-07-06T06:42:53;4.18;;;2.20;;
18172;SDS011;9211;48.818;9.312;2022-07-06T06:45:21;3.53;;;2.27;;
18172;SDS011;9211;48.818;9.312;2022-07-06T06:47:50;3.22;;;2.40;;
18172;SDS011;9211;48.818;9.312;2022-07-06T06:50:17;3.47;;;2.13;;
18172;SDS011;9211;48.818;9.312;2022-07-06T06:52:44;4.30;;;2.38;;
18172;SDS011;9211;48.818;9.312;2022-07-06T06:55:11;5.72;;;2.20;;
18172;SDS011;9211;48.818;9.312;2022-07-06T06:57:38;5.90;;;2.20;;
18172;SDS011;9211;48.818;9.312;2022-07-06T07:00:06;4.53;;;2.50;;
18172;SDS011;9211;48.818;9.312;2022-07-06T07:02:34;5.15;;;2.30;;
18172;SDS011;9211;48.818;9.312;2022-07-06T07:05:02;4.32;;;2.50;;
18172;SDS011;9211;48.818;9.312;2022-07-06T07:07:30;4.00;;;2.20;;
18172;SDS011;9211;48.818;9.312;2022-07-06T07:09:58;7.38;;;2.60;;
18172;SDS011;9211;48.818;9.312;2022-07-06T07:12:25;4.40;;;2.42;;
18172;SDS011;9211;48.818;9.312;2022-07-06T07:14:52;6.75;;;2.22;;
18172;SDS011;9211;48.818;9.312;2022-07-06T07:17:19;5.30;;;2.67;;
18172;SDS011;9211;48.818;9.312;2022-07-06T07:19:46;4.35;;;2.28;;
18172;SDS011;9211;48.818;9.312;2022-07-06T07:22:15;4.15;;;2.50;;
18172;SDS011;9211;48.818;9.312;2022-07-06T07:24:42;2.88;;;2.28;;
18172;SDS011;9211;48.818;9.312;2022-07-06T07:27:09;3.92;;;2.10;;
18172;SDS011;9211;48.818;9.312;2022-07-06T07:29:36;3.97;;;2.20;;
18172;SDS011;9211;48.818;9.312;2022-07-06T07:32:03;5.40;;;2.42;;
18172;SDS011;9211;48.818;9.312;2022-07-06T07:34:30;4.47;;;2.45;;
18172;SDS011;9211;48.818;9.312;2022-07-06T07:36:57;4.32;;;2.55;;
18172;SDS011;9211;48.818;9.312;2022-07-06T07:39:25;3.78;;;2.45;;
18172;SDS011;9211;48.818;9.312;2022-07-06T07:41:52;4.50;;;2.60;;
18172;SDS011;9211;48.818;9.312;2022-07-06T07:44:19;5.78;;;2.60;;
18172;SDS011;9211;48.818;9.312;2022-07-06T07:46:46;5.25;;;2.40;;
18172;SDS011;9211;48.818;9.312;2022-07-06T07:49:13;5.07;;;2.60;;
18172;SDS011;9211;48.818;9.312;2022-07-06T07:51:41;5.95;;;2.90;;
18172;SDS011;9211;48.818;9.312;2022-07-06T07:54:08;5.40;;;2.58;;
18172;SDS011;9211;48.818;9.312;2022-07-06T07:56:36;5.67;;;2.40;;
18172;SDS011;9211;48.818;9.312;2022-07-06T07:59:05;5.97;;;2.90;;
18172;SDS011;9211;48.818;9.312;2022-07-06T08:01:33;6.47;;;2.20;;
18172;SDS011;9211;48.818;9.312;2022-07-06T08:04:00;7.00;;;3.00;;
18172;SDS011;9211;48.818;9.312;2022-07-06T08:06:27;5.75;;;3.13;;
18172;SDS011;9211;48.818;9.312;2022-07-06T08:08:54;4.13;;;2.85;;
18172;SDS011;9211;48.818;9.312;2022-07-06T08:11:21;5.70;;;2.90;;
18172;SDS011;9211;48.818;9.312;2022-07-06T08:13:49;5.03;;;2.60;;
18172;SDS011;9211;48.818;9.312;2022-07-06T08:16:16;4.07;;;2.47;;
18172;SDS011;9211;48.818;9.312;2022-07-06T08:18:43;7.25;;;3.13;;
18172;SDS011;9211;48.818;9.312;2022-07-06T08:21:10;4.57;;;2.60;;
18172;SDS011;9211;48.818;9.312;2022-07-06T08:23:37;6.13;;;2.72;;
18172;SDS011;9211;48.818;9.312;2022-07-06T08:26:04;4.15;;;2.50;;
18172;SDS011;9211;48.818;9.312;2022-07-06T08:28:31;6.23;;;3.00;;
18172;SDS011;9211;48.818;9.312;2022-07-06T08:31:00;3.97;;;2.70;;
18172;SDS011;9211;48.818;9.312;2022-07-06T08:33:30;4.88;;;2.40;;
18172;SDS011;9211;48.818;9.312;2022-07-06T08:35:57;5.22;;;2.60;;
18172;SDS011;9211;48.818;9.312;2022-07-06T08:38:24;5.10;;;2.45;;
18172;SDS011;9211;48.818;9.312;2022-07-06T08:40:51;5.30;;;3.08;;
18172;SDS011;9211;48.818;9.312;2022-07-06T08:43:18;4.80;;;2.70;;
18172;SDS011;9211;48.818;9.312;2022-07-06T08:45:49;3.80;;;2.47;;
18172;SDS011;9211;48.818;9.312;2022-07-06T08:48:19;6.70;;;3.00;;
18172;SDS011;9211;48.818;9.312;2022-07-06T08:50:49;4.72;;;2.80;;
18172;SDS011;9211;48.818;9.312;2022-07-06T08:53:18;5.38;;;2.50;;
18172;SDS011;9211;48.818;9.312;2022-07-06T08:55:45;7.35;;;2.90;;
18172;SDS011;9211;48.818;9.312;2022-07-06T08:58:13;7.57;;;2.83;;
18172;SDS011;9211;48.818;9.312;2022-07-06T09:00:40;6.88;;;3.08;;
18172;SDS011;9211;48.818;9.312;2022-07-06T09:03:07;3.15;;;2.05;;
18172;SDS011;9211;48.818;9.312;2022-07-06T09:05:40;4.75;;;2.90;;
18172;SDS011;9211;48.818;9.312;2022-07-06T09:08:10;4.45;;;2.30;;
18172;SDS011;9211;48.818;9.312;2022-07-06T09:10:38;5.35;;;2.75;;
18172;SDS011;9211;48.818;9.312;2022-07-06T09:13:06;6.97;;;3.70;;
18172;SDS011;9211;48.818;9.312;2022-07-06T09:15:34;5.43;;;2.88;;
18172;SDS011;9211;48.818;9.312;2022-07-06T09:18:04;3.97;;;2.50;;
18172;SDS011;9211;48.818;9.312;2022-07-06T09:20:31;4.38;;;2.40;;
18172;SDS011;9211;48.818;9.312;2022-07-06T09:23:01;5.03;;;2.50;;
18172;SDS011;9211;48.818;9.312;2022-07-06T09:25:29;4.35;;;2.47;;
18172;SDS011;9211;48.818;9.312;2022-07-06T09:27:56;4.47;;;2.35;;
18172;SDS011;9211;48.818;9.312;2022-07-06T09:30:26;5.05;;;2.47;;
18172;SDS011;9211;48.818;9.312;2022-07-06T09:32:55;3.20;;;2.40;;
18172;SDS011;9211;48.818;9.312;2022-07-06T09:35:24;3.20;;;2.10;;
18172;SDS011;9211;48.818;9.312;2022-07-06T09:38:00;7.55;;;2.88;;
18172;SDS011;9211;48.818;9.312;2022-07-06T09:40:29;3.58;;;2.28;;
18172;SDS011;9211;48.818;9.312;2022-07-06T09:43:07;4.05;;;1.83;;
18172;SDS011;9211;48.818;9.312;2022-07-06T09:45:35;4.03;;;2.10;;
18172;SDS011;9211;48.818;9.312;2022-07-06T09:48:08;5.03;;;2.22;;
18172;SDS011;9211;48.818;9.312;2022-07-06T09:50:39;4.45;;;2.38;;
18172;SDS011;9211;48.818;9.312;2022-07-06T09:53:12;8.33;;;2.70;;
18172;SDS011;9211;48.818;9.312;2022-07-06T09:55:42;4.93;;;2.40;;
18172;SDS011;9211;48.818;9.312;2022-07-06T09:58:10;6.25;;;2.55;;
18172;SDS011;9211;48.818;9.312;2022-07-06T10:00:38;3.83;;;2.10;;
18172;SDS011;9211;48.818;9.312;2022-07-06T10:03:04;7.78;;;2.60;;
18172;SDS011;9211;48.818;9.312;2022-07-06T10:05:32;4.22;;;2.28;;
18172;SDS011;9211;48.818;9.312;2022-07-06T10:08:01;6.20;;;2.33;;
18172;SDS011;9211;48.818;9.312;2022-07-06T10:10:32;6.40;;;2.65;;
18172;SDS011;9211;48.818;9.312;2022-07-06T10:13:00;3.90;;;2.25;;
18172;SDS011;9211;48.818;9.312;2022-07-06T10:15:30;5.25;;;2.47;;
18172;SDS011;9211;48.818;9.312;2022-07-06T10:17:58;3.97;;;2.22;;
18172;SDS011;9211;48.818;9.312;2022-07-06T10:20:27;2.58;;;1.77;;
18172;SDS011;9211;48.818;9.312;2022-07-06T10:22:57;2.90;;;1.95;;
18172;SDS011;9211;48.818;9.312;2022-07-06T10:25:26;4.35;;;2.50;;
18172;SDS011;9211;48.818;9.312;2022-07-06T10:27:55;5.07;;;2.80;;
18172;SDS011;9211;48.818;9.312;2022-07-06T10:30:22;3.58;;;2.00;;
18172;SDS011;9211;48.818;9.312;2022-07-06T10:32:51;2.67;;;1.88;;
18172;SDS011;9211;48.818;9.312;2022-07-06T10:35:18;3.95;;;1.90;;
18172;SDS011;9211;48.818;9.312;2022-07-06T10:37:46;3.70;;;1.92;;
18172;SDS011;9211;48.818;9.312;2022-07-06T10:40:33;4.50;;;2.30;;
18172;SDS011;9211;48.818;9.312;2022-07-06T10:43:20;6.37;;;2.10;;
18172;SDS011;9211;48.818;9.312;2022-07-06T10:45:50;4.47;;;1.90;;
18172;SDS011;9211;48.818;9.312;2022-07-06T10:48:21;3.22;;;2.00;;
18172;SDS011;9211;48.818;9.312;2022-07-06T10:50:50;5.32;;;2.10;;
18172;SDS011;9211;48.818;9.312;2022-07-06T10:53:21;4.75;;;2.20;;
18172;SDS011;9211;48.818;9.312;2022-07-06T10:55:50;4.45;;;2.30;;
18172;SDS011;9211;48.818;9.312;2022-07-06T10:58:38;6.55;;;2.30;;
18172;SDS011;9211;48.818;9.312;2022-07-06T11:01:16;4.50;;;2.23;;
18172;SDS011;9211;48.818;9.312;2022-07-06T11:03:44;3.57;;;1.80;;
18172;SDS011;9211;48.818;9.312;2022-07-06T11:06:13;3.95;;;1.90;;
18172;SDS011;9211;48.818;9.312;2022-07-06T11:08:42;6.00;;;2.10;;
18172;SDS011;9211;48.818;9.312;2022-07-06T11:11:10;5.20;;;2.00;;
18172;SDS011;9211;48.818;9.312;2022-07-06T11:13:49;3.57;;;2.13;;
18172;SDS011;9211;48.818;9.312;2022-07-06T11:16:21;2.45;;;1.63;;
18172;SDS011;9211;48.818;9.312;2022-07-06T11:18:59;5.65;;;2.50;;
18172;SDS011;9211;48.818;9.312;2022-07-06T11:21:32;3.22;;;2.28;;
18172;SDS011;9211;48.818;9.312;2022-07-06T11:24:01;7.85;;;2.47;;
18172;SDS011;9211;48.818;9.312;2022-07-06T11:26:30;5.70;;;2.10;;
18172;SDS011;9211;48.818;9.312;2022-07-06T11:28:59;4.65;;;2.00;;
18172;SDS011;9211;48.818;9.312;2022-07-06T11:31:27;4.25;;;2.00;;
18172;SDS011;9211;48.818;9.312;2022-07-06T11:33:53;3.70;;;1.70;;
18172;SDS011;9211;48.818;9.312;2022-07-06T11:36:21;4.50;;;2.10;;
18172;SDS011;9211;48.818;9.312;2022-07-06T11:38:49;5.45;;;1.98;;
18172;SDS011;9211;48.818;9.312;2022-07-06T11:41:17;6.28;;;1.90;;
18172;SDS011;9211;48.818;9.312;2022-07-06T11:43:44;5.05;;;1.80;;
18172;SDS011;9211;48.818;9.312;2022-07-06T11:46:23;3.85;;;1.90;;
18172;SDS011;9211;48.818;9.312;2022-07-06T11:48:53;4.18;;;2.00;;
18172;SDS011;9211;48.818;9.312;2022-07-06T11:51:22;5.03;;;2.10;;
18172;SDS011;9211;48.818;9.312;2022-07-06T11:53:50;6.05;;;2.10;;
18172;SDS011;9211;48.818;9.312;2022-07-06T11:56:19;6.78;;;2.10;;
18172;SDS011;9211;48.818;9.312;2022-07-06T11:58:50;4.88;;;2.00;;
18172;SDS011;9211;48.818;9.312;2022-07-06T12:01:19;4.93;;;2.00;;
18172;SDS011;9211;48.818;9.312;2022-07-06T12:03:50;4.93;;;2.00;;
18172;SDS011;9211;48.818;9.312;2022-07-06T12:06:18;6.60;;;1.80;;
18172;SDS011;9211;48.818;9.312;2022-07-06T12:08:46;3.93;;;1.80;;
18172;SDS011;9211;48.818;9.312;2022-07-06T12:11:19;3.97;;;1.80;;
18172;SDS011;9211;48.818;9.312;2022-07-06T12:13:47;3.43;;;1.80;;
18172;SDS011;9211;48.818;9.312;2022-07-06T12:16:15;3.90;;;1.80;;
18172;SDS011;9211;48.818;9.312;2022-07-06T12:18:43;4.00;;;1.90;;
18172;SDS011;9211;48.818;9.312;2022-07-06T12:21:14;6.15;;;2.10;;
18172;SDS011;9211;48.818;9.312;2022-07-06T12:23:43;4.07;;;1.92;;
18172;SDS011;9211;48.818;9.312;2022-07-06T12:26:11;5.15;;;2.03;;
18172;SDS011;9211;48.818;9.312;2022-07-06T12:28:40;4.05;;;1.80;;
18172;SDS011;9211;48.818;9.312;2022-07-06T12:31:08;3.85;;;2.15;;
18172;SDS011;9211;48.818;9.312;2022-07-06T12:33:35;3.35;;;1.92;;
18172;SDS011;9211;48.818;9.312;2022-07-06T12:36:08;3.60;;;2.00;;
18172;SDS011;9211;48.818;9.312;2022-07-06T12:38:43;4.78;;;1.88;;
18172;SDS011;9211;48.818;9.312;2022-07-06T12:41:11;5.70;;;2.00;;
18172;SDS011;9211;48.818;9.312;2022-07-06T12:43:59;4.90;;;2.10;;
18172;SDS011;9211;48.818;9.312;2022-07-06T12:46:28;5.37;;;2.07;;
18172;SDS011;9211;48.818;9.312;2022-07-06T12:48:56;4.75;;;2.20;;
18172;SDS011;9211;48.818;9.312;2022-07-06T12:51:24;5.28;;;2.20;;
18172;SDS011;9211;48.818;9.312;2022-07-06T12:53:56;4.80;;;2.10;;
18172;SDS011;9211;48.818;9.312;2022-07-06T12:59:27;3.50;;;1.83;;
18172;SDS011;9211;48.818;9.312;2022-07-06T13:01:55;7.05;;;2.30;;
18172;SDS011;9211;48.818;9.312;2022-07-06T13:04:23;4.25;;;2.20;;
18172;SDS011;9211;48.818;9.312;2022-07-06T13:06:50;7.20;;;2.28;;
18172;SDS011;9211;48.818;9.312;2022-07-06T13:09:21;6.38;;;2.30;;
18172;SDS011;9211;48.818;9.312;2022-07-06T13:11:48;6.55;;;2.17;;
18172;SDS011;9211;48.818;9.312;2022-07-06T13:14:16;5.40;;;2.10;;
18172;SDS011;9211;48.818;9.312;2022-07-06T13:16:44;6.60;;;2.20;;
18172;SDS011;9211;48.818;9.312;2022-07-06T13:19:12;4.03;;;1.80;;
18172;SDS011;9211;48.818;9.312;2022-07-06T13:21:41;6.25;;;1.83;;
18172;SDS011;9211;48.818;9.312;2022-07-06T13:24:09;3.30;;;2.00;;
18172;SDS011;9211;48.818;9.312;2022-07-06T13:26:38;2.80;;;1.80;;
18172;SDS011;9211;48.818;9.312;2022-07-06T13:29:05;5.20;;;2.10;;
18172;SDS011;9211;48.818;9.312;2022-07-06T13:31:32;2.67;;;1.70;;
18172;SDS011;9211;48.818;9.312;2022-07-06T13:33:59;5.97;;;2.00;;
18172;SDS011;9211;48.818;9.312;2022-07-06T13:36:26;4.18;;;1.70;;
18172;SDS011;9211;48.818;9.312;2022-07-06T13:38:53;3.97;;;1.60;;
18172;SDS011;9211;48.818;9.312;2022-07-06T13:41:20;6.03;;;1.88;;
18172;SDS011;9211;48.818;9.312;2022-07-06T13:43:49;4.15;;;2.00;;
18172;SDS011;9211;48.818;9.312;2022-07-06T13:46:16;4.57;;;1.80;;
18172;SDS011;9211;48.818;9.312;2022-07-06T13:48:44;4.10;;;2.03;;
18172;SDS011;9211;48.818;9.312;2022-07-06T13:51:12;4.20;;;1.95;;
18172;SDS011;9211;48.818;9.312;2022-07-06T13:53:39;6.40;;;1.90;;
18172;SDS011;9211;48.818;9.312;2022-07-06T13:56:06;4.25;;;1.80;;
18172;SDS011;9211;48.818;9.312;2022-07-06T13:58:34;3.95;;;1.70;;
18172;SDS011;9211;48.818;9.312;2022-07-06T14:01:02;5.57;;;2.00;;
18172;SDS011;9211;48.818;9.312;2022-07-06T14:03:30;3.28;;;1.85;;
18172;SDS011;9211;48.818;9.312;2022-07-06T14:05:58;3.43;;;1.73;;
18172;SDS011;9211;48.818;9.312;2022-07-06T14:08:27;4.68;;;1.80;;
18172;SDS011;9211;48.818;9.312;2022-07-06T14:10:54;4.17;;;1.90;;
18172;SDS011;9211;48.818;9.312;2022-07-06T14:13:22;3.05;;;1.80;;
18172;SDS011;9211;48.818;9.312;2022-07-06T14:15:49;4.45;;;1.70;;
18172;SDS011;9211;48.818;9.312;2022-07-06T14:18:18;3.85;;;1.73;;
18172;SDS011;9211;48.818;9.312;2022-07-06T14:20:45;4.37;;;1.70;;
18172;SDS011;9211;48.818;9.312;2022-07-06T14:23:13;2.30;;;1.60;;
18172;SDS011;9211;48.818;9.312;2022-07-06T14:25:41;2.63;;;1.60;;
18172;SDS011;9211;48.818;9.312;2022-07-06T14:28:09;4.07;;;1.70;;
18172;SDS011;9211;48.818;9.312;2022-07-06T14:30:39;4.75;;;1.85;;
18172;SDS011;9211;48.818;9.312;2022-07-06T14:33:07;3.67;;;1.53;;
18172;SDS011;9211;48.818;9.312;2022-07-06T14:35:37;3.78;;;1.70;;
18172;SDS011;9211;48.818;9.312;2022-07-06T14:38:06;2.88;;;1.40;;
18172;SDS011;9211;48.818;9.312;2022-07-06T14:40:34;3.28;;;1.42;;
18172;SDS011;9211;48.818;9.312;2022-07-06T14:43:02;2.72;;;1.33;;
18172;SDS011;9211;48.818;9.312;2022-07-06T14:45:29;2.90;;;1.40;;
18172;SDS011;9211;48.818;9.312;2022-07-06T14:47:57;2.10;;;1.35;;
18172;SDS011;9211;48.818;9.312;2022-07-06T14:50:24;3.67;;;1.50;;
18172;SDS011;9211;48.818;9.312;2022-07-06T14:52:52;3.20;;;1.30;;
18172;SDS011;9211;48.818;9.312;2022-07-06T14:55:20;2.42;;;1.40;;
18172;SDS011;9211;48.818;9.312;2022-07-06T14:57:47;2.88;;;1.60;;
18172;SDS011;9211;48.818;9.312;2022-07-06T15:00:15;3.80;;;1.50;;
18172;SDS011;9211;48.818;9.312;2022-07-06T15:02:42;4.80;;;1.50;;
18172;SDS011;9211;48.818;9.312;2022-07-06T15:05:09;3.88;;;1.55;;
18172;SDS011;9211;48.818;9.312;2022-07-06T15:07:37;5.82;;;1.50;;
18172;SDS011;9211;48.818;9.312;2022-07-06T15:10:06;3.93;;;1.43;;
18172;SDS011;9211;48.818;9.312;2022-07-06T15:12:34;3.03;;;1.20;;